Time;durP1;ratioP1;P1;durP2;ratioP2;P2;SDS_P1;SDS_P2;PMS_P1;PMS_P2;Temp;Humidity;BMP_temperature;BMP_pressure;BME280_temperature;BME280_humidity;BME280_pressure;Samples;Min_cycle;Max_cycle;Signal;HPM_P1;HPM_P2
2022/07/12 00:02:07;;;;;;;1.60;0.52;;;23.70;53.30;23.00;102040.00;;;;5025587;28;20605;-71
2022/07/12 00:04:53;;;;;;;1.33;0.70;;;23.60;53.20;23.00;102035.00;;;;5024134;28;20045;-71
2022/07/12 00:07:39;;;;;;;3.40;0.68;;;23.70;53.30;23.00;102029.00;;;;5023825;28;20046;-71
2022/07/12 00:10:25;;;;;;;2.63;0.77;;;23.70;53.30;22.90;102035.00;;;;5025550;28;20037;-71
2022/07/12 00:13:11;;;;;;;2.67;0.77;;;23.70;53.30;22.90;102033.00;;;;5022092;28;20044;-71
2022/07/12 00:15:58;;;;;;;1.35;0.40;;;23.70;53.30;22.90;102031.00;;;;5024879;28;20033;-71
2022/07/12 00:18:44;;;;;;;2.78;1.00;;;23.70;53.30;22.90;102050.00;;;;5020949;28;20415;-71
2022/07/12 00:21:30;;;;;;;0.95;0.60;;;23.70;53.30;22.90;102038.00;;;;5021895;28;20045;-70
2022/07/12 00:24:16;;;;;;;3.17;0.50;;;23.70;53.40;22.90;102032.00;;;;5023460;28;20068;-71
2022/07/12 00:27:02;;;;;;;1.88;0.52;;;23.70;53.30;22.90;102032.00;;;;5026059;28;20103;-71
2022/07/12 00:29:48;;;;;;;2.53;0.40;;;23.70;53.30;22.90;102030.00;;;;5024320;28;20038;-71
2022/07/12 00:32:34;;;;;;;1.33;0.40;;;23.60;53.30;22.90;102032.00;;;;5019245;28;20061;-70
2022/07/12 00:35:20;;;;;;;1.63;0.50;;;23.50;53.30;22.90;102033.00;;;;5024063;28;20045;-71
2022/07/12 00:38:06;;;;;;;1.15;0.70;;;23.60;53.30;22.90;102028.00;;;;5024724;28;20073;-71
2022/07/12 00:40:53;;;;;;;1.20;0.60;;;23.60;53.30;22.90;102031.00;;;;5022735;28;20139;-71
2022/07/12 00:43:39;;;;;;;1.23;0.50;;;23.60;53.30;22.90;102027.00;;;;5019576;28;20427;-71
2022/07/12 00:46:25;;;;;;;0.55;0.40;;;23.60;53.30;22.80;102030.00;;;;5024911;28;20041;-71
2022/07/12 00:49:15;;;;;;;0.80;0.40;;;23.60;53.30;22.80;102026.00;;;;5025387;28;20048;-71
2022/07/12 00:52:01;;;;;;;0.75;0.40;;;23.60;53.30;22.80;102023.00;;;;5032039;28;20041;-71
2022/07/12 00:54:47;;;;;;;1.52;0.65;;;23.60;53.30;22.80;102016.00;;;;5020627;28;20064;-71
2022/07/12 00:57:34;;;;;;;0.70;0.40;;;23.50;53.20;22.80;102007.00;;;;5024400;28;20458;-71
2022/07/12 01:00:23;;;;;;;0.43;0.30;;;23.60;53.20;22.80;102005.00;;;;5026493;28;20428;-71
2022/07/12 01:03:09;;;;;;;2.00;0.45;;;23.50;53.20;22.80;102006.00;;;;5036338;28;20491;-70
2022/07/12 01:05:56;;;;;;;3.25;0.40;;;23.50;53.20;22.80;102009.00;;;;5025842;28;20099;-71
2022/07/12 01:08:42;;;;;;;0.40;0.40;;;23.50;53.20;22.80;102015.00;;;;5025999;28;20073;-71
2022/07/12 01:11:28;;;;;;;1.67;0.50;;;23.50;53.20;22.80;102007.00;;;;5021896;28;20498;-71
2022/07/12 01:14:14;;;;;;;0.32;0.20;;;23.50;53.20;22.80;102007.00;;;;5039184;28;20452;-71
2022/07/12 01:17:00;;;;;;;0.82;0.40;;;23.50;53.10;22.70;102003.00;;;;5025685;28;20049;-71
2022/07/12 01:19:47;;;;;;;1.30;0.32;;;23.50;53.20;22.70;101998.00;;;;5004673;28;20042;-71
2022/07/12 01:22:35;;;;;;;1.55;0.30;;;23.50;53.10;22.70;101998.00;;;;5024022;28;20041;-71
2022/07/12 01:25:21;;;;;;;0.45;0.20;;;23.40;53.10;22.70;101994.00;;;;5038023;28;20091;-70
2022/07/12 01:28:08;;;;;;;1.17;0.40;;;23.50;53.10;22.70;102000.00;;;;5039451;28;20058;-71
2022/07/12 01:30:54;;;;;;;0.22;0.20;;;23.50;53.20;22.70;102000.00;;;;5027832;28;20124;-71
2022/07/12 01:33:40;;;;;;;1.20;0.30;;;23.40;53.10;22.70;101997.00;;;;5030126;28;20045;-71
2022/07/12 01:36:26;;;;;;;0.57;0.40;;;23.30;53.00;22.70;101996.00;;;;5014652;28;20037;-70
2022/07/12 01:39:12;;;;;;;0.60;0.40;;;23.40;53.80;22.70;102004.00;;;;5040193;28;20123;-71
2022/07/12 01:41:58;;;;;;;0.47;0.32;;;23.30;53.10;22.70;102006.00;;;;5026104;28;20407;-71
2022/07/12 01:44:44;;;;;;;0.75;0.25;;;23.40;53.00;22.70;102006.00;;;;5012359;28;20064;-71
2022/07/12 01:47:31;;;;;;;0.28;0.28;;;23.40;53.00;22.70;102017.00;;;;5025678;28;20510;-71
2022/07/12 01:50:17;;;;;;;1.33;0.73;;;23.40;53.00;22.70;102011.00;;;;5026476;28;20044;-71
2022/07/12 01:53:06;;;;;;;0.30;0.30;;;23.40;53.00;22.70;102013.00;;;;5029082;28;20045;-71
2022/07/12 01:55:52;;;;;;;0.73;0.25;;;23.30;52.90;22.60;102024.00;;;;5024070;28;20389;-70
2022/07/12 01:58:38;;;;;;;0.60;0.28;;;23.40;53.00;22.60;102032.00;;;;5023786;28;20050;-71
2022/07/12 02:01:24;;;;;;;0.22;0.22;;;23.40;53.60;22.60;102022.00;;;;5022564;28;20037;-71
2022/07/12 02:04:10;;;;;;;0.40;0.30;;;23.40;53.00;22.60;102026.00;;;;5024536;28;20041;-71
2022/07/12 02:06:56;;;;;;;0.73;0.40;;;23.40;53.00;22.60;102024.00;;;;5026539;28;20029;-71
2022/07/12 02:09:42;;;;;;;0.30;0.30;;;23.30;53.00;22.60;102034.00;;;;5005642;28;20436;-71
2022/07/12 02:12:29;;;;;;;1.10;0.30;;;23.30;52.90;22.60;102037.00;;;;5023203;28;20068;-71
2022/07/12 02:15:15;;;;;;;0.20;0.20;;;23.30;52.90;22.60;102029.00;;;;5027717;28;20437;-71
2022/07/12 02:18:01;;;;;;;0.55;0.20;;;23.30;52.90;22.60;102044.00;;;;5021764;28;20050;-71
2022/07/12 02:20:47;;;;;;;0.20;0.20;;;23.30;52.90;22.60;102038.00;;;;5024484;28;20041;-70
2022/07/12 02:23:33;;;;;;;1.23;0.25;;;23.30;52.80;22.60;102036.00;;;;5024917;28;20084;-71
2022/07/12 02:26:19;;;;;;;0.52;0.50;;;23.30;52.90;22.60;102044.00;;;;5027197;28;20074;-71
2022/07/12 02:29:06;;;;;;;0.47;0.28;;;23.20;52.80;22.60;102038.00;;;;5027244;28;20075;-71
2022/07/12 02:31:52;;;;;;;0.35;0.30;;;23.30;52.90;22.60;102052.00;;;;5023049;28;20042;-71
2022/07/12 02:34:38;;;;;;;0.32;0.25;;;23.20;52.80;22.50;102046.00;;;;5018306;28;20068;-70
2022/07/12 02:37:25;;;;;;;1.35;0.50;;;23.20;52.80;22.50;102051.00;;;;5023765;28;20482;-71
2022/07/12 02:43:16;;;;;;;0.20;0.10;;;23.20;52.80;22.50;102061.00;;;;5025692;28;20037;-70
2022/07/12 02:46:10;;;;;;;0.45;0.20;;;23.20;52.70;22.50;102053.00;;;;5024222;28;20053;-70
2022/07/12 02:48:56;;;;;;;0.90;0.30;;;23.20;52.70;22.50;102048.00;;;;5023265;28;20049;-70
2022/07/12 02:51:42;;;;;;;0.40;0.22;;;23.20;52.70;22.50;102047.00;;;;5020418;28;20344;-70
2022/07/12 02:54:28;;;;;;;0.77;0.20;;;23.20;52.80;22.50;102053.00;;;;5029581;28;20515;-70
2022/07/12 02:57:14;;;;;;;0.08;0.08;;;23.20;52.80;22.50;102055.00;;;;5023209;28;20049;-70
2022/07/12 03:00:00;;;;;;;0.25;0.20;;;23.20;52.80;22.50;102055.00;;;;5020827;28;20049;-70
2022/07/12 03:02:46;;;;;;;0.20;0.20;;;23.20;52.70;22.50;102058.00;;;;5017333;28;20376;-70
2022/07/12 03:05:32;;;;;;;0.30;0.30;;;23.20;52.70;22.50;102066.00;;;;5018059;28;20048;-70
2022/07/12 03:08:18;;;;;;;0.20;0.20;;;23.20;52.70;22.40;102065.00;;;;5019865;28;20045;-70
2022/07/12 03:11:05;;;;;;;0.28;0.20;;;23.20;52.60;22.40;102054.00;;;;5021820;28;20037;-70
2022/07/12 03:13:51;;;;;;;0.20;0.20;;;23.20;52.60;22.40;102047.00;;;;5025769;28;20052;-71
2022/07/12 03:16:37;;;;;;;0.40;0.20;;;23.10;52.60;22.40;102046.00;;;;5024643;28;20049;-71
2022/07/12 03:19:23;;;;;;;0.10;0.10;;;23.10;52.60;22.40;102050.00;;;;5017584;28;20041;-71
2022/07/12 03:22:09;;;;;;;0.30;0.30;;;23.10;52.60;22.40;102044.00;;;;5024095;28;20412;-71
2022/07/12 03:24:55;;;;;;;0.38;0.30;;;23.10;52.60;22.40;102039.00;;;;5015136;28;20041;-71
2022/07/12 03:27:42;;;;;;;0.20;0.20;;;23.10;52.60;22.40;102045.00;;;;5020769;28;20649;-71
2022/07/12 03:30:28;;;;;;;0.22;0.22;;;23.10;52.50;22.40;102047.00;;;;5023347;28;20042;-71
2022/07/12 03:33:14;;;;;;;0.65;0.20;;;23.10;52.50;22.40;102058.00;;;;5022984;28;20141;-70
2022/07/12 03:36:00;;;;;;;0.20;0.20;;;23.10;52.50;22.40;102058.00;;;;5021047;28;20038;-70
2022/07/12 03:38:46;;;;;;;1.20;0.30;;;23.00;52.40;22.40;102050.00;;;;5016847;28;20132;-71
2022/07/12 03:41:32;;;;;;;0.22;0.22;;;23.10;52.50;22.40;102053.00;;;;5023124;28;20072;-71
2022/07/12 03:44:18;;;;;;;0.13;0.13;;;23.10;52.50;22.40;102059.00;;;;5023381;28;20041;-71
2022/07/12 03:47:04;;;;;;;0.63;0.20;;;23.10;52.40;22.30;102059.00;;;;5028067;28;20038;-71
2022/07/12 03:49:51;;;;;;;0.20;0.20;;;23.10;52.40;22.30;102065.00;;;;5020443;28;20042;-71
2022/07/12 03:52:37;;;;;;;0.23;0.20;;;23.10;52.40;22.30;102059.00;;;;5018413;28;20068;-71
2022/07/12 03:55:23;;;;;;;1.17;0.30;;;23.00;52.40;22.30;102070.00;;;;5027550;28;20322;-71
2022/07/12 03:58:09;;;;;;;0.40;0.30;;;23.10;52.50;22.30;102071.00;;;;5020932;28;20107;-71
2022/07/12 04:00:56;;;;;;;0.25;0.20;;;23.00;52.40;22.30;102064.00;;;;5025953;28;20399;-71
2022/07/12 04:03:42;;;;;;;0.20;0.20;;;23.00;52.40;22.30;102066.00;;;;5010898;28;20046;-71
2022/07/12 04:06:28;;;;;;;0.30;0.30;;;23.00;52.40;22.30;102066.00;;;;5015763;28;20057;-71
2022/07/12 04:09:14;;;;;;;0.20;0.20;;;23.00;52.40;22.30;102073.00;;;;5042378;28;20034;-71
2022/07/12 04:12:00;;;;;;;0.20;0.20;;;22.90;52.30;22.30;102063.00;;;;5017082;28;20472;-71
2022/07/12 04:14:46;;;;;;;0.28;0.28;;;23.00;52.30;22.30;102066.00;;;;5017675;28;20037;-71
2022/07/12 04:17:32;;;;;;;0.20;0.20;;;23.00;52.30;22.30;102070.00;;;;5025137;28;20480;-71
2022/07/12 04:20:19;;;;;;;0.10;0.10;;;23.00;52.30;22.30;102070.00;;;;5022238;28;20040;-71
2022/07/12 04:23:05;;;;;;;0.30;0.30;;;23.00;52.40;22.30;102072.00;;;;5028122;28;20503;-71
2022/07/12 04:25:51;;;;;;;1.17;0.22;;;23.00;52.30;22.30;102063.00;;;;5028744;28;20119;-70
2022/07/12 04:28:37;;;;;;;0.10;0.10;;;23.00;52.30;22.30;102062.00;;;;5020311;28;20107;-71
2022/07/12 04:31:24;;;;;;;0.22;0.22;;;23.00;52.30;22.30;102057.00;;;;5028670;28;20037;-71
2022/07/12 04:34:10;;;;;;;0.40;0.22;;;23.00;52.30;22.30;102063.00;;;;5025886;28;20045;-71
2022/07/12 04:36:56;;;;;;;1.58;0.20;;;23.00;52.20;22.30;102066.00;;;;5036173;28;20124;-70
2022/07/12 04:39:42;;;;;;;0.30;0.30;;;23.00;52.20;22.20;102063.00;;;;5025800;28;20049;-71
2022/07/12 04:42:28;;;;;;;0.20;0.20;;;23.00;52.20;22.20;102073.00;;;;5032556;28;20044;-70
2022/07/12 04:45:14;;;;;;;0.35;0.30;;;23.00;52.30;22.30;102079.00;;;;5015645;28;20634;-71
2022/07/12 04:48:00;;;;;;;0.38;0.30;;;22.90;52.20;22.20;102074.00;;;;5028270;28;20103;-71
2022/07/12 04:50:46;;;;;;;1.17;0.20;;;23.00;52.10;22.20;102078.00;;;;5032756;28;20045;-71
2022/07/12 04:53:32;;;;;;;0.20;0.20;;;22.90;52.20;22.20;102073.00;;;;5023220;28;20059;-71
2022/07/12 04:56:18;;;;;;;0.25;0.22;;;22.90;52.10;22.20;102068.00;;;;5027147;28;20421;-71
2022/07/12 04:59:04;;;;;;;0.30;0.30;;;23.00;52.20;22.20;102068.00;;;;5025819;28;20053;-71
2022/07/12 05:01:50;;;;;;;0.28;0.20;;;22.90;52.10;22.20;102074.00;;;;5027583;28;20456;-70
2022/07/12 05:04:36;;;;;;;0.43;0.30;;;23.00;52.10;22.20;102073.00;;;;5025564;28;20043;-71
2022/07/12 05:07:22;;;;;;;0.22;0.22;;;22.90;52.10;22.20;102079.00;;;;5024165;28;20045;-71
2022/07/12 05:10:09;;;;;;;1.20;0.30;;;22.90;52.10;22.20;102079.00;;;;5025273;28;20107;-71
2022/07/12 05:12:55;;;;;;;0.30;0.28;;;23.00;52.10;22.20;102070.00;;;;5018170;28;20057;-71
2022/07/12 05:15:41;;;;;;;1.23;0.30;;;22.90;52.00;22.20;102071.00;;;;5027743;28;20482;-71
2022/07/12 05:18:27;;;;;;;0.30;0.30;;;23.00;52.10;22.20;102069.00;;;;5024192;28;20033;-71
2022/07/12 05:21:13;;;;;;;0.28;0.25;;;22.90;52.00;22.20;102068.00;;;;5026112;28;20068;-71
2022/07/12 05:23:59;;;;;;;0.30;0.30;;;23.00;52.00;22.20;102072.00;;;;5020492;28;20037;-71
2022/07/12 05:26:45;;;;;;;0.25;0.25;;;23.00;52.00;22.20;102075.00;;;;5025071;28;20041;-71
2022/07/12 05:29:31;;;;;;;0.70;0.35;;;23.00;52.00;22.30;102068.00;;;;5022115;28;20041;-71
2022/07/12 05:32:17;;;;;;;0.68;0.40;;;22.90;52.00;22.30;102076.00;;;;5023239;28;20565;-70
2022/07/12 05:35:03;;;;;;;2.53;0.40;;;23.00;52.00;22.30;102072.00;;;;5026303;28;20045;-71
2022/07/12 05:37:49;;;;;;;0.30;0.28;;;23.00;51.90;22.30;102077.00;;;;5021342;28;20046;-71
2022/07/12 05:40:35;;;;;;;0.30;0.30;;;23.00;52.00;22.30;102081.00;;;;5028184;28;20380;-71
2022/07/12 05:43:22;;;;;;;1.77;0.50;;;23.10;52.00;22.30;102073.00;;;;5021357;28;20503;-71
2022/07/12 05:46:08;;;;;;;0.30;0.30;;;23.00;51.90;22.30;102081.00;;;;5026872;28;20279;-71
2022/07/12 05:48:55;;;;;;;0.47;0.47;;;23.00;52.20;22.30;102080.00;;;;5018317;28;20400;-71
2022/07/12 05:54:45;;;;;;;0.50;0.30;;;23.00;51.80;22.30;102078.00;;;;5022442;28;20045;-70
2022/07/12 05:57:31;;;;;;;0.40;0.40;;;23.10;51.80;22.30;102085.00;;;;5019778;28;20437;-70
2022/07/12 06:00:17;;;;;;;0.30;0.30;;;23.10;51.90;22.30;102091.00;;;;5024507;28;20064;-71
2022/07/12 06:03:03;;;;;;;0.50;0.50;;;23.10;51.90;22.30;102087.00;;;;5022362;28;20388;-70
2022/07/12 06:05:50;;;;;;;0.40;0.40;;;23.20;51.90;22.30;102093.00;;;;5025057;28;20042;-71
2022/07/12 06:08:36;;;;;;;0.60;0.50;;;23.10;51.90;22.40;102099.00;;;;5021501;28;20780;-71
2022/07/12 06:11:22;;;;;;;0.50;0.50;;;23.10;51.80;22.40;102101.00;;;;5021832;28;20091;-71
2022/07/12 06:14:08;;;;;;;0.60;0.60;;;23.20;51.90;22.40;102101.00;;;;5020449;28;20041;-71
2022/07/12 06:16:54;;;;;;;1.58;0.80;;;23.10;51.90;22.40;102101.00;;;;5019622;28;20038;-71
2022/07/12 06:19:40;;;;;;;1.05;0.60;;;23.20;51.90;22.40;102103.00;;;;5018297;28;20052;-70
2022/07/12 06:22:26;;;;;;;0.50;0.50;;;23.20;51.90;22.40;102102.00;;;;5025438;28;20041;-70
2022/07/12 06:25:12;;;;;;;1.70;0.60;;;23.20;51.90;22.40;102101.00;;;;5024594;28;20074;-70
2022/07/12 06:28:01;;;;;;;0.70;0.70;;;23.30;51.90;22.40;102104.00;;;;5021628;28;20067;-71
2022/07/12 06:30:47;;;;;;;0.60;0.60;;;23.20;51.80;22.40;102101.00;;;;5023249;28;20156;-70
2022/07/12 06:33:34;;;;;;;0.88;0.50;;;23.20;51.80;22.40;102106.00;;;;5022562;28;20064;-71
2022/07/12 06:36:20;;;;;;;6.82;0.70;;;23.30;51.90;22.40;102113.00;;;;5026900;28;20037;-71
2022/07/12 06:39:06;;;;;;;0.57;0.57;;;23.30;51.90;22.40;102131.00;;;;5024296;28;20264;-70
2022/07/12 06:41:52;;;;;;;0.75;0.60;;;23.30;51.90;22.40;102134.00;;;;5021470;28;20056;-70
2022/07/12 06:44:38;;;;;;;1.02;0.60;;;23.30;51.90;22.40;102136.00;;;;5021040;28;20067;-71
2022/07/12 06:47:25;;;;;;;3.83;0.70;;;23.30;51.90;22.40;102137.00;;;;5021642;28;20042;-70
2022/07/12 06:50:11;;;;;;;0.90;0.57;;;23.30;51.90;22.40;102125.00;;;;5025830;28;20045;-70
2022/07/12 06:52:57;;;;;;;1.10;0.70;;;23.30;51.90;22.50;102126.00;;;;5018260;28;20534;-70
2022/07/12 06:55:43;;;;;;;0.70;0.63;;;23.30;51.90;22.50;102118.00;;;;5023031;28;20045;-70
2022/07/12 06:58:29;;;;;;;0.60;0.60;;;23.30;51.90;22.50;102126.00;;;;5010280;28;20037;-70
2022/07/12 07:01:16;;;;;;;0.50;0.50;;;23.30;52.00;22.50;102122.00;;;;5019248;28;20503;-70
2022/07/12 07:04:02;;;;;;;0.70;0.70;;;23.30;52.00;22.50;102127.00;;;;5022281;28;20064;-70
2022/07/12 07:06:48;;;;;;;1.25;0.80;;;23.40;52.00;22.50;102127.00;;;;5009974;28;20053;-70
2022/07/12 07:09:34;;;;;;;0.70;0.68;;;23.30;52.00;22.50;102132.00;;;;5023985;28;20040;-70
2022/07/12 07:12:20;;;;;;;1.42;0.65;;;23.40;52.00;22.50;102121.00;;;;5021983;28;20041;-70
2022/07/12 07:15:06;;;;;;;0.80;0.80;;;23.40;52.10;22.50;102120.00;;;;5021836;28;20483;-70
2022/07/12 07:17:52;;;;;;;2.63;0.82;;;23.40;52.10;22.50;102128.00;;;;5009561;28;20511;-70
2022/07/12 07:20:40;;;;;;;1.00;0.70;;;23.40;52.10;22.50;102118.00;;;;5019977;28;20567;-70
2022/07/12 07:23:26;;;;;;;0.70;0.70;;;23.30;52.10;22.50;102116.00;;;;5021268;28;20466;-70
2022/07/12 07:26:12;;;;;;;1.15;0.82;;;23.40;52.20;22.50;102108.00;;;;5021577;28;20064;-71
2022/07/12 07:32:04;;;;;;;1.13;0.90;;;23.40;52.60;22.50;102106.00;;;;5025473;28;20045;-71
2022/07/12 07:34:50;;;;;;;1.60;0.80;;;23.40;52.20;22.50;102104.00;;;;5016029;28;20095;-71
2022/07/12 07:37:36;;;;;;;0.68;0.68;;;23.40;52.20;22.50;102099.00;;;;5020866;28;20310;-71
2022/07/12 07:40:22;;;;;;;0.75;0.75;;;23.40;52.20;22.50;102095.00;;;;5024866;28;20362;-71
2022/07/12 07:43:08;;;;;;;1.30;0.70;;;23.40;52.30;22.50;102099.00;;;;5023954;28;20033;-71
2022/07/12 07:45:54;;;;;;;1.00;0.82;;;23.40;52.30;22.50;102102.00;;;;5021713;28;20506;-71
2022/07/12 07:48:40;;;;;;;0.77;0.75;;;23.40;52.30;22.50;102095.00;;;;5017341;28;20150;-71
2022/07/12 07:51:26;;;;;;;0.80;0.80;;;23.40;52.30;22.50;102092.00;;;;5015886;28;20029;-71
2022/07/12 07:54:12;;;;;;;0.63;0.63;;;23.40;52.30;22.50;102103.00;;;;5023264;28;20244;-71
2022/07/12 07:56:58;;;;;;;1.90;0.85;;;23.40;52.40;22.50;102106.00;;;;5023788;28;20405;-71
2022/07/12 07:59:44;;;;;;;2.65;0.90;;;23.40;52.40;22.50;102111.00;;;;5025578;28;20045;-70
2022/07/12 08:02:31;;;;;;;1.55;0.65;;;23.40;52.40;22.50;102112.00;;;;5022168;28;20038;-71
2022/07/12 08:05:17;;;;;;;1.23;1.00;;;23.40;52.30;22.50;102112.00;;;;5029114;28;20056;-70
2022/07/12 08:08:03;;;;;;;2.15;0.80;;;23.40;52.30;22.50;102106.00;;;;5028574;28;20071;-71
2022/07/12 08:10:50;;;;;;;0.50;0.50;;;23.40;52.30;22.50;102104.00;;;;5029510;28;20483;-70
2022/07/12 08:13:36;;;;;;;0.63;0.63;;;23.40;52.30;22.50;102114.00;;;;5020239;28;20157;-70
2022/07/12 08:16:22;;;;;;;0.80;0.70;;;23.40;52.30;22.50;102113.00;;;;5021882;28;20528;-70
2022/07/12 08:19:09;;;;;;;0.70;0.70;;;23.40;52.50;22.50;102112.00;;;;5023036;28;20045;-70
2022/07/12 08:21:55;;;;;;;1.08;0.73;;;23.40;52.40;22.50;102099.00;;;;5026519;28;20045;-71
2022/07/12 08:24:41;;;;;;;0.80;0.70;;;23.50;52.50;22.60;102093.00;;;;5024351;28;20107;-70
2022/07/12 08:27:27;;;;;;;0.50;0.50;;;23.50;52.40;22.50;102088.00;;;;5029648;28;20042;-71
2022/07/12 08:30:14;;;;;;;2.00;0.55;;;23.40;52.30;22.60;102093.00;;;;5021941;28;20290;-70
2022/07/12 08:33:00;;;;;;;0.95;0.50;;;23.40;52.40;22.60;102099.00;;;;5026225;28;20036;-70
2022/07/12 08:35:46;;;;;;;0.82;0.60;;;23.50;52.50;22.60;102095.00;;;;5027773;28;20041;-70
2022/07/12 08:38:33;;;;;;;0.70;0.70;;;23.50;52.40;22.60;102095.00;;;;5021949;28;20564;-70
2022/07/12 08:41:19;;;;;;;1.25;0.40;;;23.50;52.40;22.60;102097.00;;;;5029406;28;20500;-70
2022/07/12 08:44:05;;;;;;;0.93;0.60;;;23.50;52.40;22.60;102116.00;;;;5025672;28;20633;-71
2022/07/12 08:46:52;;;;;;;0.70;0.60;;;23.50;52.40;22.60;102109.00;;;;5020404;28;20049;-70
2022/07/12 08:49:38;;;;;;;1.00;0.60;;;23.40;52.40;22.60;102110.00;;;;5024864;28;20045;-70
2022/07/12 08:52:25;;;;;;;0.52;0.50;;;23.50;52.40;22.60;102103.00;;;;5028331;28;20502;-70
2022/07/12 08:55:18;;;;;;;0.65;0.50;;;23.50;52.40;22.60;102101.00;;;;5024305;28;20044;-70
2022/07/12 08:58:06;;;;;;;0.57;0.40;;;23.50;52.30;22.60;102110.00;;;;5020354;28;20056;-70
2022/07/12 09:00:52;;;;;;;0.40;0.40;;;23.50;52.30;22.60;102110.00;;;;5031379;28;20056;-70
2022/07/12 09:03:38;;;;;;;0.77;0.45;;;23.50;52.30;22.60;102109.00;;;;5052759;28;20045;-70
2022/07/12 09:06:24;;;;;;;0.73;0.50;;;23.50;52.20;22.60;102116.00;;;;5010177;28;20046;-70
2022/07/12 09:09:10;;;;;;;0.30;0.30;;;23.50;52.30;22.60;102105.00;;;;5024557;28;20093;-70
2022/07/12 09:11:56;;;;;;;0.55;0.40;;;23.50;52.30;22.60;102104.00;;;;5020181;28;20082;-70
2022/07/12 09:14:42;;;;;;;1.38;0.50;;;23.50;52.30;22.60;102097.00;;;;5017969;28;20506;-70
2022/07/12 09:17:28;;;;;;;0.65;0.38;;;23.50;52.20;22.60;102100.00;;;;5022118;28;20033;-70
2022/07/12 09:20:15;;;;;;;0.55;0.40;;;23.50;52.20;22.60;102113.00;;;;5025937;28;20510;-70
2022/07/12 09:23:04;;;;;;;0.40;0.40;;;23.40;52.10;22.60;102100.00;;;;5025273;28;20045;-70
2022/07/12 09:25:50;;;;;;;0.40;0.40;;;23.50;52.20;22.60;102100.00;;;;5026606;28;20041;-70
2022/07/12 09:28:36;;;;;;;0.47;0.40;;;23.50;52.20;22.60;102110.00;;;;5024223;28;20408;-70
2022/07/12 09:31:22;;;;;;;0.32;0.32;;;23.50;52.20;22.60;102112.00;;;;5032419;28;20038;-70
2022/07/12 09:37:13;;;;;;;0.40;0.40;;;23.50;52.20;22.60;102100.00;;;;5027843;28;20041;-70
2022/07/12 09:39:59;;;;;;;0.95;0.45;;;23.50;52.10;22.60;102097.00;;;;5015509;28;20052;-70
2022/07/12 09:42:45;;;;;;;0.52;0.32;;;23.50;52.20;22.60;102106.00;;;;5006989;28;20399;-70
2022/07/12 09:45:31;;;;;;;0.30;0.30;;;23.50;52.20;22.60;102110.00;;;;5014669;28;20048;-70
2022/07/12 09:48:21;;;;;;;0.75;0.38;;;23.60;52.30;22.60;102092.00;;;;5021466;28;20037;-70
2022/07/12 09:51:13;;;;;;;0.95;0.60;;;23.60;52.30;22.60;102088.00;;;;5026748;28;20048;-70
2022/07/12 09:53:59;;;;;;;1.55;0.45;;;23.60;52.30;22.60;102090.00;;;;5021777;28;20034;-69
2022/07/12 09:56:45;;;;;;;1.27;0.47;;;23.60;52.30;22.60;102089.00;;;;5019587;28;20041;-70
2022/07/12 09:59:31;;;;;;;0.50;0.47;;;23.50;52.20;22.60;102093.00;;;;5021197;28;20403;-70
2022/07/12 10:02:17;;;;;;;0.50;0.50;;;23.60;52.20;22.60;102091.00;;;;5018714;28;20033;-70
2022/07/12 10:05:05;;;;;;;0.52;0.40;;;23.60;52.20;22.60;102093.00;;;;5022229;28;20144;-70
2022/07/12 10:07:51;;;;;;;0.68;0.60;;;23.60;52.30;22.60;102098.00;;;;5016205;28;20041;-70
2022/07/12 10:10:37;;;;;;;0.35;0.35;;;23.60;52.30;22.60;102091.00;;;;5025812;28;20049;-70
2022/07/12 10:13:23;;;;;;;0.45;0.35;;;23.60;52.30;22.60;102083.00;;;;5034935;28;20060;-70
2022/07/12 10:16:10;;;;;;;0.50;0.50;;;23.60;52.30;22.60;102078.00;;;;5022569;28;20033;-70
2022/07/12 10:19:28;;;;;;;0.22;0.22;;;23.60;52.30;22.60;102091.00;;;;5026023;28;20041;-70
2022/07/12 10:22:21;;;;;;;0.40;0.40;;;23.60;52.40;22.60;102087.00;;;;5049439;28;20498;-70
2022/07/12 10:25:33;;;;;;;0.75;0.50;;;23.60;52.30;22.60;102075.00;;;;5023824;28;20041;-70
2022/07/12 10:28:19;;;;;;;0.40;0.40;;;23.60;53.10;22.60;102089.00;;;;5025666;28;20045;-70
2022/07/12 10:31:05;;;;;;;1.27;0.45;;;23.60;52.40;22.60;102071.00;;;;5012314;28;20041;-70
2022/07/12 10:34:24;;;;;;;0.65;0.40;;;23.60;52.50;22.60;102077.00;;;;4997120;28;20334;-70
2022/07/12 10:37:10;;;;;;;1.67;0.40;;;23.60;52.50;22.60;102069.00;;;;5024171;28;20046;-70
2022/07/12 10:40:15;;;;;;;0.60;0.40;;;23.60;52.30;22.60;102075.00;;;;5022894;28;20049;-70
2022/07/12 10:43:04;;;;;;;1.45;0.50;;;23.60;52.40;22.60;102076.00;;;;5021399;28;20123;-70
2022/07/12 10:45:51;;;;;;;0.98;0.50;;;23.60;52.30;22.60;102070.00;;;;5021884;28;20037;-70
2022/07/12 10:48:37;;;;;;;0.40;0.35;;;23.60;52.40;22.70;102069.00;;;;5015571;28;20072;-70
2022/07/12 10:51:23;;;;;;;0.50;0.50;;;23.60;52.40;22.70;102073.00;;;;5017773;28;20046;-70
2022/07/12 10:54:29;;;;;;;1.75;0.45;;;23.60;52.40;22.60;102069.00;;;;5017854;28;20046;-70
2022/07/12 10:57:16;;;;;;;0.40;0.40;;;23.60;52.40;22.70;102075.00;;;;5014535;28;20041;-70
2022/07/12 11:00:03;;;;;;;0.28;0.28;;;23.60;52.40;22.70;102066.00;;;;5022094;28;20053;-70
2022/07/12 11:02:49;;;;;;;1.05;0.50;;;23.60;52.40;22.70;102067.00;;;;5002691;28;20057;-70
2022/07/12 11:05:35;;;;;;;0.43;0.43;;;23.70;52.40;22.70;102060.00;;;;5022743;28;20106;-70
2022/07/12 11:08:21;;;;;;;1.50;0.30;;;23.60;52.30;22.70;102054.00;;;;5021735;28;20510;-70
2022/07/12 11:11:07;;;;;;;0.28;0.25;;;23.60;52.30;22.70;102060.00;;;;5025121;28;20098;-70
2022/07/12 11:13:54;;;;;;;1.95;0.30;;;23.70;52.40;22.70;102058.00;;;;5021486;28;20046;-70
2022/07/12 11:16:44;;;;;;;1.58;0.40;;;23.70;52.60;22.70;102065.00;;;;5024801;28;20411;-70
2022/07/12 11:19:31;;;;;;;1.20;0.40;;;23.70;52.60;22.70;102053.00;;;;5023418;28;20376;-70
2022/07/12 11:22:18;;;;;;;0.40;0.30;;;23.70;52.40;22.70;102064.00;;;;5031334;28;20049;-70
2022/07/12 11:25:07;;;;;;;1.10;0.35;;;23.70;52.40;22.70;102050.00;;;;5024125;28;20107;-70
2022/07/12 11:27:53;;;;;;;0.30;0.30;;;23.70;52.40;22.70;102060.00;;;;5025550;28;20068;-70
2022/07/12 11:30:49;;;;;;;0.80;0.40;;;23.70;52.40;22.70;102056.00;;;;5026377;28;20037;-70
2022/07/12 11:33:41;;;;;;;0.75;0.35;;;23.70;52.30;22.70;102048.00;;;;5021668;28;20488;-70
2022/07/12 11:36:27;;;;;;;1.10;0.47;;;23.70;52.20;22.70;102059.00;;;;5014237;28;20033;-70
2022/07/12 11:39:13;;;;;;;0.40;0.40;;;23.70;52.20;22.70;102047.00;;;;5022699;28;20506;-70
2022/07/12 11:41:59;;;;;;;0.30;0.30;;;23.70;52.20;22.70;102041.00;;;;5028504;28;20088;-70
2022/07/12 11:44:50;;;;;;;0.80;0.40;;;23.70;52.20;22.70;102041.00;;;;5017377;28;20067;-70
2022/07/12 11:47:36;;;;;;;0.57;0.30;;;23.70;52.20;22.70;102039.00;;;;5024193;28;20072;-70
2022/07/12 11:50:22;;;;;;;0.40;0.40;;;23.70;52.20;22.70;102037.00;;;;5015734;28;20767;-69
2022/07/12 11:53:16;;;;;;;0.77;0.38;;;23.70;52.20;22.70;102035.00;;;;5023532;28;20376;-70
2022/07/12 11:56:04;;;;;;;1.17;0.25;;;23.70;52.20;22.70;102029.00;;;;5045909;28;20123;-70
2022/07/12 11:58:59;;;;;;;0.52;0.28;;;23.70;52.10;22.70;102029.00;;;;5019469;28;20092;-69
2022/07/12 12:02:12;;;;;;;1.60;0.50;;;23.80;52.40;22.70;102023.00;;;;5023517;28;20041;-70
2022/07/12 12:05:20;;;;;;;4.68;0.70;;;23.80;52.20;22.70;102026.00;;;;5025582;28;20034;-70
2022/07/12 12:08:10;;;;;;;0.32;0.30;;;23.80;52.20;22.70;102020.00;;;;5018749;28;20044;-70
2022/07/12 12:10:58;;;;;;;1.00;0.40;;;23.80;52.20;22.70;102024.00;;;;5026718;28;20045;-70
2022/07/12 12:13:44;;;;;;;;;;;23.80;52.20;22.70;102019.00;;;;5015470;28;20049;-69
2022/07/12 12:16:34;;;;;;;0.20;0.20;;;23.80;52.20;22.70;102012.00;;;;5037173;28;19920;-70
2022/07/12 12:19:20;;;;;;;0.50;0.20;;;23.80;52.10;22.70;102015.00;;;;5027605;28;20110;-70
2022/07/12 12:22:06;;;;;;;0.80;0.30;;;23.80;52.00;22.70;102014.00;;;;5034219;28;20045;-70
2022/07/12 12:25:06;;;;;;;0.30;0.30;;;23.90;52.10;22.70;102002.00;;;;5012522;28;20049;-69
2022/07/12 12:28:03;;;;;;;0.65;0.30;;;23.80;52.00;22.70;102000.00;;;;5015983;28;20514;-70